createdAt,value
2019-03-21T00:02:28.342Z,6.72
2019-03-21T00:05:01.400Z,7.05
2019-03-21T00:07:32.013Z,6.47
2019-03-21T00:10:34.890Z,6.95
2019-03-21T00:13:05.245Z,7.42
2019-03-21T00:15:38.975Z,7.22
2019-03-21T00:18:32.979Z,6.65
2019-03-21T00:21:03.562Z,6.25
2019-03-21T00:23:33.709Z,7.20
2019-03-21T00:26:04.174Z,8.43
2019-03-21T00:28:34.469Z,7.60
2019-03-21T00:31:05.009Z,7.08
2019-03-21T00:33:35.152Z,6.67
2019-03-21T00:36:05.569Z,6.90
2019-03-21T00:38:35.838Z,7.05
2019-03-21T00:41:06.890Z,7.28
2019-03-21T00:43:37.323Z,7.22
2019-03-21T00:46:07.910Z,7.30
2019-03-21T00:48:38.433Z,6.80
2019-03-21T00:51:08.937Z,6.90
2019-03-21T00:53:39.729Z,6.83
2019-03-21T00:56:09.922Z,6.80
2019-03-21T00:58:40.440Z,7.45
2019-03-21T01:01:11.066Z,7.22
2019-03-21T01:03:41.440Z,6.60
2019-03-21T01:06:11.763Z,5.80
2019-03-21T01:08:44.831Z,7.95
2019-03-21T01:11:15.349Z,7.67
2019-03-21T01:13:45.705Z,6.45
2019-03-21T01:16:16.658Z,7.50
2019-03-21T01:18:46.871Z,7.70
2019-03-21T01:21:17.497Z,7.22
2019-03-21T01:23:47.620Z,7.67
2019-03-21T01:26:18.554Z,7.17
2019-03-21T01:28:48.955Z,7.53
2019-03-21T01:31:19.421Z,6.65
2019-03-21T01:33:49.806Z,6.92
2019-03-21T01:36:23.895Z,7.08
2019-03-21T01:38:54.738Z,7.00
2019-03-21T01:41:25.390Z,6.70
2019-03-21T01:43:56.331Z,8.40
2019-03-21T01:46:26.584Z,7.00
2019-03-21T01:48:57.007Z,6.95
2019-03-21T01:51:27.246Z,7.05
2019-03-21T01:53:57.700Z,6.63
2019-03-21T01:56:29.014Z,6.83
2019-03-21T01:58:59.490Z,6.87
2019-03-21T02:01:29.778Z,7.53
2019-03-21T02:04:00.682Z,7.17
2019-03-21T02:06:31.322Z,7.10
2019-03-21T02:09:06.340Z,8.27
2019-03-21T02:11:38.690Z,6.97
2019-03-21T02:14:08.909Z,7.75
2019-03-21T02:16:39.309Z,7.12
2019-03-21T02:19:11.058Z,6.92
2019-03-21T02:21:41.462Z,6.72
2019-03-21T02:24:12.117Z,5.67
2019-03-21T02:26:43.411Z,5.72
2019-03-21T02:29:13.623Z,7.35
2019-03-21T02:31:44.623Z,7.80
2019-03-21T02:34:14.952Z,7.22
2019-03-21T02:36:45.902Z,7.20
2019-03-21T02:39:16.388Z,6.60
2019-03-21T02:41:46.622Z,6.70
2019-03-21T02:44:16.965Z,7.50
2019-03-21T02:46:47.661Z,7.50
2019-03-21T02:49:18.470Z,7.35
2019-03-21T02:51:49.050Z,7.03
2019-03-21T02:54:19.491Z,7.28
2019-03-21T02:56:50.155Z,7.90
2019-03-21T02:59:21.335Z,7.30
2019-03-21T03:01:51.626Z,6.85
2019-03-21T03:04:21.695Z,7.17
2019-03-21T03:06:52.975Z,7.62
2019-03-21T03:09:24.182Z,7.58
2019-03-21T03:11:56.251Z,8.68
2019-03-21T03:14:27.527Z,8.03
2019-03-21T03:16:57.761Z,6.33
2019-03-21T03:19:29.772Z,7.87
2019-03-21T03:22:00.431Z,6.15
2019-03-21T03:24:32.691Z,7.55
2019-03-21T03:27:03.070Z,7.50
2019-03-21T03:29:34.375Z,8.35
2019-03-21T03:32:06.337Z,7.42
2019-03-21T03:34:36.982Z,8.05
2019-03-21T03:37:09.196Z,8.05
2019-03-21T03:39:39.339Z,7.50
2019-03-21T03:42:10.042Z,7.80
2019-03-21T03:44:40.221Z,7.37
2019-03-21T03:47:12.383Z,6.83
2019-03-21T03:49:42.744Z,7.62
2019-03-21T03:52:13.048Z,7.47
2019-03-21T03:54:44.239Z,6.42
2019-03-21T03:57:14.772Z,8.10
2019-03-21T03:59:46.203Z,8.23
2019-03-21T04:02:17.108Z,7.25
2019-03-21T04:04:47.437Z,6.70
2019-03-21T04:07:17.916Z,7.97
2019-03-21T04:09:48.128Z,8.15
2019-03-21T04:12:18.284Z,8.40
2019-03-21T04:14:51.284Z,8.13
2019-03-21T04:17:21.809Z,8.23
2019-03-21T04:19:52.123Z,7.47
2019-03-21T04:22:22.488Z,7.35
2019-03-21T04:24:52.600Z,7.63
2019-03-21T04:27:23.841Z,8.48
2019-03-21T04:29:54.439Z,7.10
2019-03-21T04:32:24.677Z,6.70
2019-03-21T04:34:54.872Z,7.35
2019-03-21T04:37:25.768Z,6.50
2019-03-21T04:39:56.172Z,7.85
2019-03-21T04:42:26.344Z,7.42
2019-03-21T04:44:57.933Z,7.97
2019-03-21T04:47:30.455Z,8.45
2019-03-21T04:50:04.231Z,8.33
2019-03-21T04:52:34.424Z,7.65
2019-03-21T04:55:06.318Z,7.20
2019-03-21T04:57:36.588Z,7.08
2019-03-21T05:00:09.976Z,8.58
2019-03-21T05:02:40.043Z,8.60
2019-03-21T05:05:10.832Z,7.35
2019-03-21T05:07:41.073Z,8.53
2019-03-21T05:10:13.395Z,7.83
2019-03-21T05:12:43.559Z,7.15
2019-03-21T05:15:16.333Z,7.75
2019-03-21T05:17:48.910Z,7.25
2019-03-21T05:20:21.551Z,7.70
2019-03-21T05:22:51.903Z,7.53
2019-03-21T05:25:22.015Z,8.90
2019-03-21T05:27:52.391Z,8.00
2019-03-21T05:30:41.207Z,9.43
2019-03-21T05:33:12.620Z,6.42
2019-03-21T05:35:42.903Z,8.15
2019-03-21T05:38:13.137Z,7.97
2019-03-21T05:40:43.603Z,8.53
2019-03-21T05:43:17.114Z,7.75
2019-03-21T05:45:47.244Z,8.03
2019-03-21T05:48:17.935Z,7.45
2019-03-21T05:50:48.240Z,7.05
2019-03-21T05:53:18.321Z,7.47
2019-03-21T05:55:48.458Z,8.67
2019-03-21T05:58:19.892Z,8.00
2019-03-21T06:00:51.447Z,8.43
2019-03-21T06:03:24.581Z,7.85
2019-03-21T06:06:02.734Z,7.45
2019-03-21T06:08:36.212Z,8.50
2019-03-21T06:11:07.739Z,8.73
2019-03-21T06:13:39.640Z,7.50
2019-03-21T06:16:11.144Z,7.60
2019-03-21T06:19:06.797Z,7.92
2019-03-21T06:22:20.540Z,8.25
2019-03-21T06:25:15.779Z,8.03
2019-03-21T06:27:44.689Z,8.33
2019-03-21T06:30:15.634Z,8.78
2019-03-21T06:32:46.306Z,8.80
2019-03-21T06:35:25.544Z,8.10
2019-03-21T06:37:55.775Z,7.10
2019-03-21T06:40:26.251Z,7.50
2019-03-21T06:42:55.763Z,8.10
2019-03-21T06:45:26.155Z,7.85
2019-03-21T06:47:56.392Z,9.05
2019-03-21T06:50:28.059Z,8.93
2019-03-21T06:52:58.664Z,9.83
2019-03-21T06:55:29.311Z,7.92
2019-03-21T06:57:59.491Z,9.05
2019-03-21T07:00:29.577Z,9.18
2019-03-21T07:02:59.819Z,7.65
2019-03-21T07:05:30.296Z,8.10
2019-03-21T07:08:01.507Z,9.20
2019-03-21T07:10:33.635Z,8.85
2019-03-21T07:13:05.711Z,8.85
2019-03-21T07:15:35.907Z,8.98
2019-03-21T07:18:06.168Z,9.15
2019-03-21T07:20:36.376Z,9.23
2019-03-21T07:23:06.659Z,8.35
2019-03-21T07:25:38.370Z,9.57
2019-03-21T07:28:08.536Z,10.53
2019-03-21T07:30:40.912Z,9.00
2019-03-21T07:33:11.170Z,8.95
2019-03-21T07:35:42.296Z,10.17
2019-03-21T07:38:12.735Z,9.40
2019-03-21T07:40:44.392Z,8.08
2019-03-21T07:43:16.095Z,9.55
2019-03-21T07:45:46.404Z,10.98
2019-03-21T07:48:16.710Z,10.27
2019-03-21T07:50:46.947Z,9.75
2019-03-21T07:53:18.402Z,9.25
2019-03-21T07:55:48.803Z,9.78
2019-03-21T07:58:19.176Z,9.50
2019-03-21T08:00:49.269Z,8.85
2019-03-21T08:03:19.580Z,10.00
2019-03-21T08:05:50.955Z,9.50
2019-03-21T08:08:21.485Z,9.53
2019-03-21T08:10:53.164Z,10.60
2019-03-21T08:13:23.292Z,10.18
2019-03-21T08:15:53.556Z,9.33
2019-03-21T08:18:23.659Z,8.85
2019-03-21T08:20:58.568Z,8.37
2019-03-21T08:23:26.464Z,7.87
2019-03-21T08:25:56.667Z,9.58
2019-03-21T08:28:27.151Z,10.07
2019-03-21T08:31:16.749Z,9.08
2019-03-21T08:33:48.095Z,10.50
2019-03-21T08:36:20.175Z,10.90
2019-03-21T08:38:53.179Z,9.78
2019-03-21T08:41:23.539Z,7.55
2019-03-21T08:43:53.974Z,10.82
2019-03-21T08:46:25.960Z,10.78
2019-03-21T08:48:58.015Z,9.78
2019-03-21T08:51:28.172Z,15.65
2019-03-21T08:53:58.495Z,15.18
2019-03-21T08:56:28.580Z,11.45
2019-03-21T08:58:59.645Z,12.28
2019-03-21T09:01:29.734Z,12.75
2019-03-21T09:04:00.121Z,10.35
2019-03-21T09:06:30.332Z,11.33
2019-03-21T09:09:00.933Z,10.90
2019-03-21T09:11:31.159Z,11.50
2019-03-21T09:14:02.075Z,9.88
2019-03-21T09:16:32.320Z,8.93
2019-03-21T09:19:04.255Z,10.40
2019-03-21T09:21:34.512Z,10.45
2019-03-21T09:24:04.916Z,11.33
2019-03-21T09:26:35.085Z,10.85
2019-03-21T09:29:05.187Z,9.83
2019-03-21T09:31:35.519Z,9.53
2019-03-21T09:34:05.979Z,11.33
2019-03-21T09:36:36.475Z,9.20
2019-03-21T09:39:08.312Z,9.85
2019-03-21T09:41:38.616Z,11.47
2019-03-21T09:44:10.244Z,10.82
2019-03-21T09:46:50.478Z,8.58
2019-03-21T09:49:14.131Z,9.95
2019-03-21T09:51:45.531Z,10.48
2019-03-21T09:54:15.943Z,9.55
2019-03-21T09:56:48.039Z,10.23
2019-03-21T09:59:18.292Z,9.15
2019-03-21T10:01:48.544Z,10.60
2019-03-21T10:04:18.749Z,9.13
2019-03-21T10:06:49.839Z,9.03
2019-03-21T10:09:21.403Z,9.80
2019-03-21T10:11:53.079Z,9.48
2019-03-21T10:14:25.606Z,8.80
2019-03-21T10:16:55.697Z,9.28
2019-03-21T10:19:25.861Z,10.00
2019-03-21T10:21:57.611Z,8.75
2019-03-21T10:24:29.631Z,8.63
2019-03-21T10:26:59.864Z,9.53
2019-03-21T10:29:31.933Z,10.25
2019-03-21T10:32:13.660Z,9.85
2019-03-21T10:34:34.263Z,9.63
2019-03-21T10:37:05.523Z,9.20
2019-03-21T10:39:37.188Z,9.75
2019-03-21T10:42:07.442Z,9.43
2019-03-21T10:44:39.724Z,9.78
2019-03-21T10:47:10.163Z,10.15
2019-03-21T10:49:40.538Z,8.13
2019-03-21T10:52:10.863Z,10.20
2019-03-21T10:54:41.054Z,9.68
2019-03-21T10:57:11.151Z,9.55
2019-03-21T10:59:40.648Z,9.58
2019-03-21T11:02:10.772Z,9.18
2019-03-21T11:04:40.884Z,8.58
2019-03-21T11:07:09.194Z,9.35
2019-03-21T11:09:39.496Z,9.88
2019-03-21T11:12:09.706Z,10.20
2019-03-21T11:14:39.849Z,10.03
2019-03-21T11:17:11.532Z,7.90
2019-03-21T11:19:41.724Z,8.90
2019-03-21T11:22:11.830Z,9.58
2019-03-21T11:24:43.747Z,8.65
2019-03-21T11:27:15.850Z,7.95
2019-03-21T11:29:45.931Z,8.93
2019-03-21T11:32:16.507Z,9.23
2019-03-21T11:34:46.679Z,8.08
2019-03-21T11:37:18.791Z,8.75
2019-03-21T11:39:49.394Z,9.63
2019-03-21T11:42:21.117Z,9.40
2019-03-21T11:44:51.417Z,8.88
2019-03-21T11:47:22.053Z,9.25
2019-03-21T11:49:53.806Z,9.30
2019-03-21T11:52:24.303Z,9.95
2019-03-21T11:54:56.045Z,9.63
2019-03-21T11:57:27.495Z,8.83
2019-03-21T11:59:59.487Z,9.35
2019-03-21T12:02:29.914Z,9.57
2019-03-21T12:05:00.518Z,9.28
2019-03-21T12:07:30.728Z,8.20
2019-03-21T12:10:01.347Z,8.47
2019-03-21T12:12:32.042Z,9.88
2019-03-21T12:15:02.107Z,10.23
2019-03-21T12:17:33.347Z,10.03
2019-03-21T12:20:03.871Z,9.30
2019-03-21T12:22:34.006Z,9.23
2019-03-21T12:25:06.075Z,9.93
2019-03-21T12:27:37.467Z,9.43
2019-03-21T12:30:08.961Z,9.68
2019-03-21T12:32:40.153Z,8.98
2019-03-21T12:35:13.161Z,8.95
2019-03-21T12:37:43.318Z,8.73
2019-03-21T12:40:13.813Z,8.75
2019-03-21T12:42:44.147Z,9.28
2019-03-21T12:45:14.655Z,8.80
2019-03-21T12:47:47.091Z,8.53
2019-03-21T12:50:18.381Z,9.23
2019-03-21T12:52:48.607Z,7.40
2019-03-21T12:55:18.820Z,7.93
2019-03-21T12:57:48.991Z,8.25
2019-03-21T13:00:30.733Z,7.92
2019-03-21T13:03:01.086Z,8.43
2019-03-21T13:05:31.188Z,7.58
2019-03-21T13:08:01.635Z,7.53
2019-03-21T13:10:34.077Z,7.28
2019-03-21T13:13:05.012Z,7.40
2019-03-21T13:15:36.977Z,7.92
2019-03-21T13:18:09.296Z,7.87
2019-03-21T13:20:39.860Z,7.47
2019-03-21T13:23:09.955Z,7.83
2019-03-21T13:25:40.343Z,8.80
2019-03-21T13:28:10.687Z,7.85
2019-03-21T13:30:43.691Z,8.38
2019-03-21T13:33:15.139Z,7.65
2019-03-21T13:35:45.275Z,7.35
2019-03-21T13:38:15.644Z,8.43
2019-03-21T13:40:45.731Z,8.13
2019-03-21T13:43:15.983Z,7.92
2019-03-21T13:45:46.784Z,8.23
2019-03-21T13:48:18.748Z,9.30
2019-03-21T13:50:49.015Z,8.83
2019-03-21T13:53:19.348Z,7.78
2019-03-21T13:55:49.677Z,8.13
2019-03-21T13:58:21.099Z,5.95
2019-03-21T14:00:52.465Z,7.83
2019-03-21T14:03:25.304Z,7.83
2019-03-21T14:05:55.386Z,7.58
2019-03-21T14:08:26.918Z,7.95
2019-03-21T14:10:57.079Z,8.75
2019-03-21T14:13:29.496Z,7.00
2019-03-21T14:16:01.721Z,7.55
2019-03-21T14:18:33.143Z,8.67
2019-03-21T14:21:03.212Z,8.68
2019-03-21T14:23:42.793Z,8.65
2019-03-21T14:26:07.759Z,8.40
2019-03-21T14:28:39.691Z,7.00
2019-03-21T14:31:11.770Z,7.92
2019-03-21T14:33:43.535Z,7.55
2019-03-21T14:36:15.146Z,6.63
2019-03-21T14:38:45.229Z,7.85
2019-03-21T14:41:15.535Z,7.00
2019-03-21T14:43:47.430Z,7.37
2019-03-21T14:46:20.492Z,6.85
2019-03-21T14:48:50.903Z,6.27
2019-03-21T14:51:21.995Z,7.17
2019-03-21T14:53:52.260Z,7.97
2019-03-21T14:56:22.807Z,8.30
2019-03-21T14:58:53.098Z,7.50
2019-03-21T15:01:23.785Z,7.70
2019-03-21T15:03:54.015Z,7.95
2019-03-21T15:06:24.238Z,7.78
2019-03-21T15:08:54.499Z,7.75
2019-03-21T15:11:25.252Z,7.92
2019-03-21T15:13:57.996Z,6.47
2019-03-21T15:16:29.296Z,6.95
2019-03-21T15:19:01.230Z,7.50
2019-03-21T15:21:32.774Z,7.43
2019-03-21T15:24:04.032Z,7.53
2019-03-21T15:26:35.073Z,6.58
2019-03-21T15:29:05.203Z,6.55
2019-03-21T15:31:35.622Z,5.35
2019-03-21T15:34:05.753Z,6.12
2019-03-21T15:36:36.143Z,5.12
2019-03-21T15:39:09.098Z,4.17
2019-03-21T15:41:40.662Z,7.35
2019-03-21T15:44:11.074Z,6.80
2019-03-21T15:46:41.637Z,6.37
2019-03-21T15:49:11.989Z,6.03
2019-03-21T15:51:43.009Z,7.45
2019-03-21T15:54:13.198Z,7.12
2019-03-21T15:56:43.353Z,5.03
2019-03-21T15:59:13.746Z,6.12
2019-03-21T16:01:44.181Z,4.70
2019-03-21T16:04:14.565Z,6.65
2019-03-21T16:06:45.011Z,5.42
2019-03-21T16:09:15.717Z,6.50
2019-03-21T16:11:46.068Z,5.70
2019-03-21T16:14:16.485Z,7.35
2019-03-21T16:16:46.977Z,3.95
2019-03-21T16:19:17.321Z,4.83
2019-03-21T16:21:48.547Z,5.43
2019-03-21T16:24:19.532Z,6.25
2019-03-21T16:26:49.877Z,5.40
2019-03-21T16:29:19.997Z,5.27
2019-03-21T16:31:50.921Z,4.65
2019-03-21T16:34:21.225Z,4.30
2019-03-21T16:36:51.737Z,4.37
2019-03-21T16:39:21.844Z,6.35
2019-03-21T16:41:52.403Z,5.30
2019-03-21T16:44:22.649Z,5.85
2019-03-21T16:46:53.101Z,5.57
2019-03-21T16:49:24.264Z,6.10
2019-03-21T16:51:56.466Z,4.13
2019-03-21T16:54:30.144Z,4.12
2019-03-21T16:56:59.558Z,8.30
2019-03-21T16:59:29.865Z,4.58
2019-03-21T17:02:00.970Z,4.60
2019-03-21T17:04:31.886Z,4.60
2019-03-21T17:07:02.241Z,7.05
2019-03-21T17:09:32.604Z,4.67
2019-03-21T17:12:03.064Z,5.47
2019-03-21T17:14:33.660Z,5.42
2019-03-21T17:17:04.035Z,4.17
2019-03-21T17:19:36.010Z,4.20
2019-03-21T17:22:07.546Z,4.40
2019-03-21T17:24:38.161Z,5.03
2019-03-21T17:27:08.481Z,3.62
2019-03-21T17:29:38.592Z,4.83
2019-03-21T17:32:08.929Z,5.40
2019-03-21T17:34:39.103Z,4.45
2019-03-21T17:37:09.476Z,5.55
2019-03-21T17:39:39.785Z,4.85
2019-03-21T17:42:10.060Z,3.95
2019-03-21T17:44:40.426Z,4.87
2019-03-21T17:47:10.930Z,4.17
2019-03-21T17:49:41.286Z,4.12
2019-03-21T17:52:11.692Z,4.50
2019-03-21T17:54:42.072Z,5.00
2019-03-21T17:57:12.715Z,4.45
2019-03-21T17:59:43.281Z,4.10
2019-03-21T18:02:13.817Z,4.67
2019-03-21T18:04:44.361Z,4.37
2019-03-21T18:07:14.857Z,5.03
2019-03-21T18:09:45.753Z,7.28
2019-03-21T18:12:16.030Z,8.60
2019-03-21T18:14:46.376Z,8.33
2019-03-21T18:17:17.066Z,8.28
2019-03-21T18:19:47.939Z,8.13
2019-03-21T18:22:18.267Z,9.03
2019-03-21T18:24:53.754Z,8.18
2019-03-21T18:27:20.949Z,7.17
2019-03-21T18:29:51.622Z,6.97
2019-03-21T18:32:22.356Z,6.03
2019-03-21T18:34:52.506Z,6.35
2019-03-21T18:37:24.778Z,6.15
2019-03-21T18:39:57.116Z,5.42
2019-03-21T18:42:28.782Z,5.25
2019-03-21T18:44:59.295Z,5.42
2019-03-21T18:47:30.215Z,5.53
2019-03-21T18:50:00.561Z,4.90
2019-03-21T18:52:30.952Z,4.35
2019-03-21T18:55:06.595Z,4.90
2019-03-21T18:57:33.306Z,4.95
2019-03-21T19:00:04.637Z,4.22
2019-03-21T19:02:34.958Z,5.15
2019-03-21T19:05:06.024Z,4.60
2019-03-21T19:07:36.137Z,4.50
2019-03-21T19:10:08.421Z,5.00
2019-03-21T19:12:39.374Z,5.57
2019-03-21T19:15:11.255Z,3.80
2019-03-21T19:17:41.624Z,4.67
2019-03-21T19:20:12.361Z,4.83
2019-03-21T19:22:42.463Z,4.92
2019-03-21T19:25:18.996Z,4.42
2019-03-21T19:27:46.075Z,5.92
2019-03-21T19:30:18.444Z,4.85
2019-03-21T19:32:48.813Z,5.20
2019-03-21T19:35:19.212Z,5.10
2019-03-21T19:37:51.035Z,4.87
2019-03-21T19:40:21.241Z,4.85
2019-03-21T19:42:52.836Z,4.75
2019-03-21T19:45:24.015Z,4.70
2019-03-21T19:47:54.135Z,5.07
2019-03-21T19:50:25.663Z,4.80
2019-03-21T19:52:56.147Z,5.07
2019-03-21T19:55:31.115Z,5.12
2019-03-21T19:57:59.593Z,4.70
2019-03-21T20:00:31.911Z,4.33
2019-03-21T20:03:03.307Z,4.77
2019-03-21T20:05:33.643Z,4.92
2019-03-21T20:08:04.065Z,4.37
2019-03-21T20:10:34.291Z,4.80
2019-03-21T20:13:04.724Z,5.20
2019-03-21T20:15:36.781Z,4.40
2019-03-21T20:18:07.202Z,4.77
2019-03-21T20:20:39.691Z,4.55
2019-03-21T20:23:10.003Z,5.12
2019-03-21T20:25:43.038Z,4.40
2019-03-21T20:28:12.575Z,5.27
2019-03-21T20:30:42.860Z,5.55
2019-03-21T20:33:12.982Z,4.55
2019-03-21T20:35:43.320Z,4.72
2019-03-21T20:38:13.578Z,4.95
2019-03-21T20:40:44.975Z,4.87
2019-03-21T20:43:15.475Z,5.05
2019-03-21T20:45:45.736Z,4.12
2019-03-21T20:48:15.996Z,4.97
2019-03-21T20:50:46.269Z,4.97
2019-03-21T20:53:19.721Z,4.90
2019-03-21T20:55:53.872Z,5.03
2019-03-21T20:58:22.971Z,4.40
2019-03-21T21:00:53.316Z,5.28
2019-03-21T21:03:23.384Z,5.25
2019-03-21T21:05:53.755Z,5.05
2019-03-21T21:08:24.032Z,5.63
2019-03-21T21:10:54.266Z,5.20
2019-03-21T21:13:24.699Z,5.17
2019-03-21T21:15:55.022Z,4.70
2019-03-21T21:18:25.505Z,5.10
2019-03-21T21:20:56.863Z,5.37
2019-03-21T21:23:28.839Z,5.03
2019-03-21T21:26:05.361Z,4.90
2019-03-21T21:28:33.592Z,5.05
2019-03-21T21:31:03.838Z,5.15
2019-03-21T21:33:33.921Z,5.25
2019-03-21T21:36:04.216Z,5.78
2019-03-21T21:38:36.215Z,5.20
2019-03-21T21:41:06.812Z,6.00
2019-03-21T21:43:37.449Z,4.73
2019-03-21T21:46:07.614Z,4.75
2019-03-21T21:48:38.947Z,5.37
2019-03-21T21:51:09.230Z,5.17
2019-03-21T21:53:39.788Z,5.33
2019-03-21T21:56:17.506Z,5.37
2019-03-21T21:58:43.131Z,5.83
2019-03-21T22:01:13.762Z,5.30
2019-03-21T22:03:45.793Z,5.28
2019-03-21T22:06:16.059Z,5.35
2019-03-21T22:08:48.535Z,6.67
2019-03-21T22:11:18.854Z,5.42
2019-03-21T22:13:49.101Z,5.83
2019-03-21T22:16:19.271Z,5.05
2019-03-21T22:18:49.390Z,5.62
2019-03-21T22:21:19.631Z,4.83
2019-03-21T22:23:50.923Z,5.72
2019-03-21T22:26:29.548Z,4.83
2019-03-21T22:28:53.539Z,6.20
2019-03-21T22:31:23.671Z,5.50
2019-03-21T22:33:53.938Z,5.55
2019-03-21T22:36:24.537Z,5.70
2019-03-21T22:38:54.858Z,5.87
2019-03-21T22:41:25.057Z,5.60
2019-03-21T22:43:55.384Z,5.28
2019-03-21T22:46:25.631Z,5.47
2019-03-21T22:48:56.875Z,5.87
2019-03-21T22:51:27.100Z,5.40
2019-03-21T22:53:59.207Z,4.65
2019-03-21T22:56:40.543Z,5.63
2019-03-21T22:59:03.557Z,6.58
2019-03-21T23:01:33.991Z,5.62
2019-03-21T23:04:05.735Z,5.17
2019-03-21T23:06:36.588Z,5.55
2019-03-21T23:09:08.274Z,5.60
2019-03-21T23:11:38.583Z,6.33
2019-03-21T23:14:10.619Z,6.07
2019-03-21T23:16:44.220Z,6.30
2019-03-21T23:19:14.986Z,6.63
2019-03-21T23:21:45.279Z,5.53
2019-03-21T23:24:16.839Z,6.45
2019-03-21T23:26:52.936Z,6.45
2019-03-21T23:29:18.933Z,5.42
2019-03-21T23:31:50.179Z,6.00
2019-03-21T23:34:20.451Z,6.12
2019-03-21T23:36:52.267Z,6.92
2019-03-21T23:39:22.491Z,6.55
2019-03-21T23:41:52.675Z,5.58
2019-03-21T23:44:22.923Z,6.33
2019-03-21T23:46:54.247Z,6.83
2019-03-21T23:49:24.339Z,6.95
2019-03-21T23:51:55.521Z,6.20
2019-03-21T23:54:27.174Z,5.45
2019-03-21T23:57:04.451Z,6.15
2019-03-21T23:59:29.384Z,6.90
